createdAt,value
2023-04-01T00:02:56.429Z,9.66
2023-04-01T00:06:55.779Z,9.63
2023-04-01T00:10:54.487Z,9.61
2023-04-01T00:14:52.451Z,9.56
2023-04-01T00:18:50.367Z,9.49
2023-04-01T00:22:48.352Z,9.40
2023-04-01T00:26:46.388Z,9.30
2023-04-01T00:30:44.321Z,9.21
2023-04-01T00:34:42.349Z,9.11
2023-04-01T00:38:40.337Z,8.97
2023-04-01T00:42:38.329Z,8.75
2023-04-01T00:46:36.362Z,8.60
2023-04-01T00:50:34.403Z,8.46
2023-04-01T00:54:35.430Z,8.39
2023-04-01T00:58:37.392Z,8.37
2023-04-01T01:02:35.363Z,8.41
2023-04-01T01:07:02.314Z,8.43
2023-04-01T01:11:05.323Z,8.40
2023-04-01T01:15:10.360Z,8.37
2023-04-01T01:19:14.232Z,8.37
2023-04-01T01:23:16.359Z,8.35
2023-04-01T01:27:23.248Z,8.34
2023-04-01T01:31:39.249Z,8.32
2023-04-01T01:35:47.259Z,8.31
2023-04-01T01:39:48.333Z,8.29
2023-04-01T01:43:51.222Z,8.31
2023-04-01T01:47:51.268Z,8.27
2023-04-01T01:51:50.231Z,8.23
2023-04-01T01:55:54.241Z,8.21
2023-04-01T01:59:55.212Z,8.20
2023-04-01T02:03:55.348Z,8.22
2023-04-01T02:07:55.255Z,8.24
2023-04-01T02:12:03.191Z,8.25
2023-04-01T02:16:07.228Z,8.28
2023-04-01T02:20:13.286Z,8.31
2023-04-01T02:24:14.173Z,8.34
2023-04-01T02:28:14.172Z,8.39
2023-04-01T02:32:14.175Z,8.44
2023-04-01T02:36:13.354Z,8.47
2023-04-01T02:40:16.278Z,8.46
2023-04-01T02:44:14.148Z,8.43
2023-04-01T02:48:12.132Z,8.41
2023-04-01T02:52:10.176Z,8.41
2023-04-01T02:56:08.108Z,8.40
2023-04-01T03:00:06.187Z,8.41
2023-04-01T03:04:04.069Z,8.42
2023-04-01T03:08:02.228Z,8.42
2023-04-01T03:12:00.149Z,8.41
2023-04-01T03:15:59.209Z,8.40
2023-04-01T03:19:57.117Z,8.39
2023-04-01T03:23:55.270Z,8.38
2023-04-01T03:27:55.438Z,8.37
2023-04-01T03:31:53.162Z,8.36
2023-04-01T03:35:51.136Z,8.34
2023-04-01T03:39:49.117Z,8.32
2023-04-01T03:43:47.094Z,8.30
2023-04-01T03:47:45.276Z,8.27
2023-04-01T03:51:43.157Z,8.23
2023-04-01T03:55:41.131Z,8.19
2023-04-01T03:59:40.142Z,8.16
2023-04-01T04:03:38.160Z,8.14
2023-04-01T04:07:36.136Z,8.12
2023-04-01T04:11:35.105Z,8.13
2023-04-01T04:15:33.173Z,8.15
2023-04-01T04:19:32.189Z,8.18
2023-04-01T04:23:30.039Z,8.22
2023-04-01T04:27:28.048Z,8.25
2023-04-01T04:31:35.128Z,8.29
2023-04-01T04:35:33.193Z,8.31
2023-04-01T04:39:30.969Z,8.34
2023-04-01T04:43:31.045Z,8.37
2023-04-01T04:47:29.099Z,8.42
2023-04-01T04:51:32.023Z,8.47
2023-04-01T04:55:29.976Z,8.53
2023-04-01T04:59:42.985Z,8.60
2023-04-01T05:03:48.083Z,8.70
2023-04-01T05:07:45.956Z,8.81
2023-04-01T05:11:43.996Z,8.91
2023-04-01T05:15:42.998Z,9.00
2023-04-01T05:19:40.982Z,9.10
2023-04-01T05:23:39.084Z,9.20
2023-04-01T05:27:36.921Z,9.30
2023-04-01T05:31:34.952Z,9.39
2023-04-01T05:35:33.319Z,9.47
2023-04-01T05:39:30.925Z,9.57
2023-04-01T05:43:28.911Z,9.67
2023-04-01T05:47:31.963Z,9.75
2023-04-01T05:51:30.884Z,9.84
2023-04-01T05:55:29.904Z,9.93
2023-04-01T05:59:28.928Z,10.01
2023-04-01T06:03:27.181Z,10.15
2023-04-01T06:07:32.879Z,10.30
2023-04-01T06:11:55.891Z,10.41
2023-04-01T06:16:05.891Z,10.56
2023-04-01T06:20:28.055Z,10.63
2023-04-01T06:24:29.845Z,10.70
2023-04-01T06:28:40.897Z,10.67
2023-04-01T06:32:56.060Z,10.65
2023-04-01T06:37:02.908Z,10.61
2023-04-01T06:41:12.825Z,10.61
2023-04-01T06:45:19.858Z,10.70
2023-04-01T06:50:10.808Z,10.89
2023-04-01T06:54:38.857Z,11.16
2023-04-01T06:59:07.859Z,11.45
2023-04-01T07:03:21.822Z,11.75
2023-04-01T07:07:43.056Z,11.99
2023-04-01T07:11:44.834Z,12.17
2023-04-01T07:16:20.818Z,12.32
2023-04-01T07:20:21.832Z,12.34
2023-04-01T07:24:29.785Z,12.47
2023-04-01T07:28:31.782Z,12.67
2023-04-01T07:33:03.799Z,12.83
2023-04-01T07:37:08.775Z,12.99
2023-04-01T07:41:38.914Z,13.40
2023-04-01T07:45:50.855Z,13.77
2023-04-01T07:50:14.773Z,13.97
2023-04-01T07:54:34.875Z,14.24
2023-04-01T07:58:51.920Z,14.57
2023-04-01T08:03:33.039Z,14.97
2023-04-01T08:07:45.699Z,15.35
2023-04-01T08:12:08.726Z,15.55
2023-04-01T08:17:05.716Z,15.41
2023-04-01T08:21:14.751Z,15.50
2023-04-01T08:25:16.827Z,15.70
2023-04-01T08:29:24.787Z,15.76
2023-04-01T08:33:37.770Z,15.77
2023-04-01T08:37:49.879Z,15.73
2023-04-01T08:42:08.695Z,15.30
2023-04-01T08:46:36.788Z,15.21
2023-04-01T08:51:16.839Z,15.36
2023-04-01T08:55:37.729Z,15.55
2023-04-01T08:59:59.688Z,15.72
2023-04-01T09:04:43.740Z,16.12
2023-04-01T09:08:45.688Z,16.44
2023-04-01T09:12:53.671Z,16.47
2023-04-01T09:17:13.702Z,16.29
2023-04-01T09:21:25.684Z,16.20
2023-04-01T09:25:53.696Z,16.08
2023-04-01T09:29:58.747Z,16.15
2023-04-01T09:34:22.689Z,16.36
2023-04-01T09:38:44.683Z,16.70
2023-04-01T09:43:11.644Z,16.88
2023-04-01T09:47:37.682Z,16.76
2023-04-01T09:51:41.658Z,16.61
2023-04-01T09:56:17.722Z,16.40
2023-04-01T10:00:33.609Z,16.36
2023-04-01T10:04:40.638Z,16.52
2023-04-01T10:09:00.622Z,16.62
2023-04-01T10:13:26.611Z,16.72
2023-04-01T10:17:40.642Z,16.72
2023-04-01T10:22:12.722Z,16.58
2023-04-01T10:26:38.742Z,16.54
2023-04-01T10:31:30.732Z,16.50
2023-04-01T10:36:05.680Z,16.54
2023-04-01T10:40:12.586Z,16.53
2023-04-01T10:44:46.589Z,16.68
2023-04-01T10:49:11.627Z,17.04
2023-04-01T10:53:16.208Z,17.34
2023-04-01T10:58:21.552Z,17.41
2023-04-01T11:02:39.713Z,17.23
2023-04-01T11:07:15.608Z,16.95
2023-04-01T11:11:45.526Z,16.70
2023-04-01T11:15:55.629Z,16.56
2023-04-01T11:20:17.525Z,16.49
2023-04-01T11:24:50.566Z,16.42
2023-04-01T11:29:25.509Z,16.34
2023-04-01T11:33:38.592Z,16.35
2023-04-01T11:37:52.530Z,16.39
2023-04-01T11:42:55.540Z,16.41
2023-04-01T11:47:41.596Z,16.48
2023-04-01T11:51:58.665Z,16.51
2023-04-01T11:56:07.877Z,16.49
2023-04-01T12:00:33.519Z,16.33
2023-04-01T12:05:09.502Z,16.12
2023-04-01T12:09:20.591Z,15.95
2023-04-01T12:13:30.555Z,15.72
2023-04-01T12:18:04.576Z,15.29
2023-04-01T12:22:20.611Z,14.74
2023-04-01T12:26:42.521Z,14.40
2023-04-01T12:31:06.459Z,13.99
2023-04-01T12:35:15.663Z,13.70
2023-04-01T12:39:26.522Z,13.60
2023-04-01T12:43:39.455Z,13.71
2023-04-01T12:47:45.476Z,13.82
2023-04-01T12:52:03.446Z,14.01
2023-04-01T12:56:01.551Z,14.51
2023-04-01T13:00:26.436Z,14.63
2023-04-01T13:04:52.425Z,14.70
2023-04-01T13:09:36.442Z,15.16
2023-04-01T13:13:49.384Z,15.52
2023-04-01T13:18:01.501Z,15.18
2023-04-01T13:22:20.400Z,15.00
2023-04-01T13:26:36.401Z,15.08
2023-04-01T13:30:49.495Z,15.28
2023-04-01T13:35:20.443Z,15.28
2023-04-01T13:39:38.490Z,15.11
2023-04-01T13:43:42.435Z,15.15
2023-04-01T13:48:07.425Z,15.21
2023-04-01T13:52:19.400Z,15.25
2023-04-01T13:56:41.410Z,15.15
2023-04-01T14:00:58.419Z,14.97
2023-04-01T14:05:05.378Z,14.78
2023-04-01T14:09:50.471Z,14.59
2023-04-01T14:14:25.338Z,14.25
2023-04-01T14:18:33.379Z,13.99
2023-04-01T14:23:08.329Z,13.83
2023-04-01T14:27:06.553Z,13.75
2023-04-01T14:31:25.382Z,13.72
2023-04-01T14:35:35.659Z,13.68
2023-04-01T14:40:03.347Z,13.74
2023-04-01T14:44:38.415Z,13.81
2023-04-01T14:49:06.307Z,13.94
2023-04-01T14:53:13.300Z,14.04
2023-04-01T14:57:39.293Z,14.08
2023-04-01T15:02:01.332Z,14.04
2023-04-01T15:06:14.293Z,13.91
2023-04-01T15:10:32.320Z,13.77
2023-04-01T15:14:46.278Z,13.67
2023-04-01T15:19:05.276Z,13.58
2023-04-01T15:23:25.342Z,13.51
2023-04-01T15:27:38.287Z,13.43
2023-04-01T15:32:09.249Z,13.35
2023-04-01T15:36:32.315Z,13.28
2023-04-01T15:40:43.250Z,13.17
2023-04-01T15:45:00.352Z,13.05
2023-04-01T15:49:32.308Z,12.83
2023-04-01T15:53:47.303Z,12.61
2023-04-01T15:58:02.197Z,12.38
2023-04-01T16:02:12.351Z,12.16
2023-04-01T16:06:33.242Z,11.97
2023-04-01T16:11:06.332Z,11.81
2023-04-01T16:15:49.210Z,11.66
2023-04-01T16:20:05.228Z,11.52
2023-04-01T16:24:11.186Z,11.38
2023-04-01T16:28:31.200Z,11.22
2023-04-01T16:33:01.278Z,11.09
2023-04-01T16:37:37.183Z,10.99
2023-04-01T16:41:41.171Z,10.95
2023-04-01T16:45:55.332Z,10.92
2023-04-01T16:50:15.145Z,10.88
2023-04-01T16:54:19.215Z,10.84
2023-04-01T16:58:17.324Z,10.79
2023-04-01T17:02:18.227Z,10.68
2023-04-01T17:06:36.144Z,10.54
2023-04-01T17:10:53.224Z,10.43
2023-04-01T17:15:25.327Z,10.34
2023-04-01T17:19:35.138Z,10.27
2023-04-01T17:23:43.128Z,10.20
2023-04-01T17:27:59.146Z,10.13
2023-04-01T17:32:08.152Z,10.08
2023-04-01T17:36:24.131Z,10.05
2023-04-01T17:40:35.496Z,10.02
2023-04-01T17:45:02.246Z,10.01
2023-04-01T17:49:27.088Z,9.99
2023-04-01T17:53:51.103Z,9.97
2023-04-01T17:58:02.082Z,9.94
2023-04-01T18:02:22.229Z,9.93
2023-04-01T18:06:30.043Z,9.88
2023-04-01T18:10:44.111Z,9.82
2023-04-01T18:15:07.044Z,9.77
2023-04-01T18:19:29.115Z,9.73
2023-04-01T18:24:02.890Z,9.69
2023-04-01T18:28:15.065Z,9.66
2023-04-01T18:32:49.102Z,9.66
2023-04-01T18:37:07.110Z,9.64
2023-04-01T18:41:18.050Z,9.62
2023-04-01T18:45:30.122Z,9.61
2023-04-01T18:49:59.044Z,9.59
2023-04-01T18:54:46.044Z,9.59
2023-04-01T18:58:59.003Z,9.57
2023-04-01T19:03:04.168Z,9.56
2023-04-01T19:07:11.991Z,9.56
2023-04-01T19:11:12.171Z,9.55
2023-04-01T19:15:18.985Z,9.55
2023-04-01T19:19:19.054Z,9.55
2023-04-01T19:23:58.001Z,9.54
2023-04-01T19:28:08.059Z,9.53
2023-04-01T19:32:11.990Z,9.52
2023-04-01T19:36:33.008Z,9.51
2023-04-01T19:40:52.996Z,9.49
2023-04-01T19:45:33.064Z,9.47
2023-04-01T19:49:58.079Z,9.45
2023-04-01T19:54:17.050Z,9.45
2023-04-01T19:58:27.026Z,9.44
2023-04-01T20:02:25.068Z,9.43
2023-04-01T20:06:26.953Z,9.41
2023-04-01T20:11:14.084Z,9.41
2023-04-01T20:15:18.020Z,9.39
2023-04-01T20:19:20.915Z,9.39
2023-04-01T20:23:33.931Z,9.39
2023-04-01T20:27:38.975Z,9.38
2023-04-01T20:32:04.140Z,9.37
2023-04-01T20:36:26.916Z,9.34
2023-04-01T20:40:50.885Z,9.28
2023-04-01T20:44:55.024Z,9.24
2023-04-01T20:49:07.067Z,9.23
2023-04-01T20:53:19.903Z,9.22
2023-04-01T20:57:35.012Z,9.21
2023-04-01T21:01:45.406Z,9.21
2023-04-01T21:06:00.865Z,9.21
2023-04-01T21:10:11.859Z,9.22
2023-04-01T21:15:00.921Z,9.23
2023-04-01T21:19:22.944Z,9.22
2023-04-01T21:23:49.791Z,9.21
2023-04-01T21:28:02.874Z,9.21
2023-04-01T21:32:09.924Z,9.21
2023-04-01T21:36:17.968Z,9.18
2023-04-01T21:41:05.784Z,9.14
2023-04-01T21:45:32.170Z,9.10
2023-04-01T21:49:50.793Z,9.07
2023-04-01T21:54:09.860Z,8.96
2023-04-01T21:58:46.857Z,8.70
2023-04-01T22:02:56.831Z,8.43
2023-04-01T22:07:04.783Z,8.24
2023-04-01T22:11:14.799Z,8.13
2023-04-01T22:15:42.769Z,8.04
2023-04-01T22:20:16.784Z,7.96
2023-04-01T22:24:32.795Z,7.92
2023-04-01T22:28:42.860Z,7.92
2023-04-01T22:33:00.779Z,7.93
2023-04-01T22:37:36.774Z,7.87
2023-04-01T22:42:03.734Z,7.78
2023-04-01T22:46:24.879Z,7.76
2023-04-01T22:50:39.739Z,7.76
2023-04-01T22:54:49.787Z,7.75
2023-04-01T22:58:53.732Z,7.73
2023-04-01T23:02:54.760Z,7.75
2023-04-01T23:06:56.674Z,7.75
2023-04-01T23:11:07.717Z,7.77
2023-04-01T23:15:09.690Z,7.74
2023-04-01T23:19:13.711Z,7.70
2023-04-01T23:23:23.700Z,7.67
2023-04-01T23:27:30.688Z,7.65
2023-04-01T23:31:48.754Z,7.58
2023-04-01T23:35:46.833Z,7.52
2023-04-01T23:39:51.746Z,7.46
2023-04-01T23:43:54.678Z,7.38
2023-04-01T23:47:54.728Z,7.33
2023-04-01T23:52:03.713Z,7.32
2023-04-01T23:56:01.693Z,7.33
